Time;durP1;ratioP1;P1;durP2;ratioP2;P2;SDS_P1;SDS_P2;PMS_P1;PMS_P2;Temp;Humidity;BMP_temperature;BMP_pressure;BME280_temperature;BME280_humidity;BME280_pressure;Samples;Min_cycle;Max_cycle;Signal;HPM_P1;HPM_P2
2023/01/25 00:02:19;;;;;;;13.70;7.30;;;;;;;-141.97;100.00;47857.38;5074100;28;20597;-82
2023/01/25 00:04:44;;;;;;;14.57;7.63;;;;;;;-141.97;100.00;47865.06;5073740;28;20256;-82
2023/01/25 00:07:10;;;;;;;15.00;7.47;;;;;;;-141.97;100.00;47901.59;5073672;28;20165;-82
2023/01/25 00:09:35;;;;;;;17.10;7.27;;;;;;;-141.97;100.00;47938.09;5073399;28;20709;-82
2023/01/25 00:12:00;;;;;;;14.20;7.00;;;;;;;-141.97;100.00;47903.50;5074023;28;20230;-82
2023/01/25 00:14:26;;;;;;;15.83;7.47;;;;;;;-141.97;100.00;47924.66;5073491;28;20247;-82
2023/01/25 00:16:52;;;;;;;16.07;7.20;;;;;;;-141.97;100.00;47872.75;5074019;28;20189;-83
2023/01/25 00:19:17;;;;;;;15.73;7.83;;;;;;;-141.97;100.00;47951.56;5074684;28;20225;-82
2023/01/25 00:21:43;;;;;;;14.67;7.20;;;;;;;-141.97;100.00;47874.69;5074410;28;20165;-82
2023/01/25 00:24:10;;;;;;;15.20;7.43;;;;;;;-141.97;100.00;47922.72;5074286;28;20194;-82
2023/01/25 00:26:36;;;;;;;17.33;7.93;;;;;;;-141.97;100.00;47890.06;5073921;28;20153;-82
2023/01/25 00:29:02;;;;;;;14.27;7.40;;;;;;;-141.97;100.00;47780.47;5072888;28;20452;-82
2023/01/25 00:31:34;;;;;;;15.03;8.17;;;;;;;-141.97;100.00;47922.72;5073032;28;20161;-82
2023/01/25 00:34:24;;;;;;;14.10;7.97;;;;;;;-141.97;100.00;47876.59;5073280;28;20859;-82
2023/01/25 00:36:50;;;;;;;21.27;7.80;;;;;;;-141.97;100.00;47909.28;5073093;28;20911;-82
2023/01/25 00:39:16;;;;;;;15.57;7.53;;;;;;;-141.97;100.00;47842.00;5072701;28;20402;-81
2023/01/25 00:41:42;;;;;;;16.80;8.20;;;;;;;-141.97;100.00;47878.53;5072560;28;20252;-82
2023/01/25 00:44:07;;;;;;;13.47;6.93;;;;;;;-141.97;100.00;47849.69;5073092;28;20287;-82
2023/01/25 00:46:32;;;;;;;16.67;8.00;;;;;;;-141.97;100.00;47995.78;5074804;28;20478;-82
2023/01/25 00:48:58;;;;;;;16.70;8.13;;;;;;;-141.97;100.00;47886.22;5073625;28;20168;-81
2023/01/25 00:51:23;;;;;;;15.13;7.90;;;;;;;-141.97;100.00;47772.78;5072960;28;20180;-82
2023/01/25 00:53:49;;;;;;;14.37;7.47;;;;;;;-141.97;100.00;47872.75;5071567;28;20187;-82
2023/01/25 00:56:14;;;;;;;16.97;7.87;;;;;;;-141.97;100.00;47842.00;5054321;28;20279;-82
2023/01/25 00:58:40;;;;;;;16.77;7.83;;;;;;;-141.97;100.00;47941.94;5072442;28;20161;-82
2023/01/25 01:01:06;;;;;;;14.23;6.67;;;;;;;-141.97;100.00;47868.91;5071912;28;20565;-81
2023/01/25 01:03:31;;;;;;;16.37;6.97;;;;;;;-141.97;100.00;47861.22;5071167;28;20414;-82
2023/01/25 01:06:00;;;;;;;14.87;6.93;;;;;;;-141.97;100.00;47918.88;5072937;28;20164;-82
2023/01/25 01:08:26;;;;;;;13.70;6.87;;;;;;;-141.97;100.00;47938.09;5072546;28;20176;-81
2023/01/25 01:10:51;;;;;;;15.17;7.00;;;;;;;-141.97;100.00;47870.81;5072199;28;20403;-82
2023/01/25 01:13:16;;;;;;;14.47;7.23;;;;;;;-141.97;100.00;47884.28;5072377;28;20275;-82
2023/01/25 01:15:42;;;;;;;14.63;7.23;;;;;;;-141.97;100.00;47930.41;5072138;28;20191;-82
2023/01/25 01:18:07;;;;;;;14.70;7.20;;;;;;;-141.97;100.00;47947.72;5072258;28;20255;-82
2023/01/25 01:20:32;;;;;;;14.60;7.30;;;;;;;-141.97;100.00;47899.66;5054773;28;20189;-82
2023/01/25 01:22:58;;;;;;;13.30;6.80;;;;;;;-141.97;100.00;47742.03;5072599;28;20663;-82
2023/01/25 01:25:23;;;;;;;16.70;7.60;;;;;;;-141.97;100.00;47915.03;5071981;28;20285;-84
2023/01/25 01:27:48;;;;;;;16.00;7.63;;;;;;;-141.97;100.00;47834.31;5072147;28;20176;-82
2023/01/25 01:30:14;;;;;;;13.53;7.20;;;;;;;-141.97;100.00;47907.34;5070989;28;20173;-82
2023/01/25 01:32:40;;;;;;;15.00;7.10;;;;;;;-141.97;100.00;47941.94;5072117;28;20196;-82
2023/01/25 01:35:05;;;;;;;14.47;7.50;;;;;;;-141.97;100.00;47920.81;5072207;28;20185;-82
2023/01/25 01:37:31;;;;;;;15.67;7.30;;;;;;;-141.97;100.00;47880.44;5072371;28;20664;-82
2023/01/25 01:39:56;;;;;;;17.47;7.37;;;;;;;-141.97;100.00;47965.03;5071730;28;20585;-83
2023/01/25 01:42:21;;;;;;;14.87;7.40;;;;;;;-141.97;100.00;47918.88;5071396;28;20196;-82
2023/01/25 01:44:53;;;;;;;18.03;8.60;;;;;;;-141.97;100.00;47899.66;5071520;28;20613;-82
2023/01/25 01:47:39;;;;;;;20.47;8.23;;;;;;;-141.97;100.00;47859.28;5071514;28;20667;-83
2023/01/25 01:50:18;;;;;;;16.17;8.10;;;;;;;-141.97;100.00;47893.91;5071384;28;20427;-82
2023/01/25 01:52:44;;;;;;;16.23;8.57;;;;;;;-141.97;100.00;47901.59;5063385;28;20923;-82
2023/01/25 01:55:16;;;;;;;17.67;8.40;;;;;;;-141.97;100.00;47830.47;5051190;28;20451;-83
2023/01/25 01:57:52;;;;;;;14.63;7.57;;;;;;;-141.97;100.00;47897.75;5051017;28;20646;-83
2023/01/25 02:00:24;;;;;;;15.77;7.33;;;;;;;-141.97;100.00;47761.25;5062343;28;21000;-83
2023/01/25 02:02:50;;;;;;;16.63;7.50;;;;;;;-141.97;100.00;47830.47;5071381;28;20399;-83
2023/01/25 02:05:26;;;;;;;31.53;10.70;;;;;;;-141.97;100.00;47815.09;5071775;28;20403;-83
2023/01/25 02:07:53;;;;;;;12.00;5.90;;;;;;;-141.97;100.00;47899.66;5071501;28;20394;-83
2023/01/25 02:10:20;;;;;;;12.57;5.77;;;;;;;-141.97;100.00;47865.06;5071631;28;20411;-83
2023/01/25 02:12:47;;;;;;;13.10;5.67;;;;;;;-141.97;100.00;47834.31;5071642;28;20431;-83
2023/01/25 02:15:12;;;;;;;10.97;5.50;;;;;;;-141.97;100.00;47982.31;5071766;28;20794;-83
2023/01/25 02:17:40;;;;;;;11.07;5.57;;;;;;;-141.97;100.00;47934.25;5073781;28;20502;-85
2023/01/25 02:20:16;;;;;;;10.53;4.90;;;;;;;-141.97;100.00;47926.56;5094256;28;20199;-81
2023/01/25 02:22:57;;;;;;;9.70;4.93;;;;;;;-141.97;100.00;47884.28;5083169;28;20403;-82
2023/01/25 02:25:24;;;;;;;9.93;5.40;;;;;;;-141.97;100.00;47890.06;5084497;28;20407;-82
2023/01/25 02:28:15;;;;;;;12.23;5.40;;;;;;;-141.97;100.00;47930.41;5073741;28;20411;-82
2023/01/25 02:30:41;;;;;;;13.50;5.70;;;;;;;-141.97;100.00;47884.28;5001401;28;20418;-82
2023/01/25 02:33:07;;;;;;;12.50;5.53;;;;;;;-141.97;100.00;47907.34;5002539;28;20518;-82
2023/01/25 02:35:45;;;;;;;11.63;5.47;;;;;;;-141.97;100.00;47874.69;4998900;28;21029;-82
2023/01/25 02:38:16;;;;;;;10.73;5.53;;;;;;;-141.97;100.00;47899.66;4992882;28;20235;-82
2023/01/25 02:40:54;;;;;;;13.03;6.10;;;;;;;-141.97;100.00;47830.47;4992722;28;20410;-83
2023/01/25 02:43:22;;;;;;;12.77;6.50;;;;;;;-141.97;100.00;47878.53;4991735;28;20406;-82
2023/01/25 02:45:55;;;;;;;12.20;6.23;;;;;;;-141.97;100.00;47899.66;4996624;28;20383;-82
2023/01/25 02:48:20;;;;;;;14.13;6.50;;;;;;;-141.97;100.00;47922.72;5011241;28;20444;-82
2023/01/25 02:50:46;;;;;;;13.33;6.70;;;;;;;-141.97;100.00;47934.25;5004249;28;20411;-82
2023/01/25 02:53:11;;;;;;;14.57;7.17;;;;;;;-141.97;100.00;47830.47;4998305;28;20234;-82
2023/01/25 02:55:36;;;;;;;18.53;9.03;;;;;;;-141.97;100.00;47915.03;4993860;28;20211;-82
2023/01/25 02:58:02;;;;;;;15.03;7.33;;;;;;;-141.97;100.00;47865.06;4991034;28;20199;-82
2023/01/25 03:00:27;;;;;;;14.77;7.40;;;;;;;-141.97;100.00;47884.28;4990465;28;20217;-83
2023/01/25 03:02:53;;;;;;;13.77;7.10;;;;;;;-141.97;100.00;47895.81;4989854;28;20580;-83
2023/01/25 03:05:18;;;;;;;14.60;7.53;;;;;;;-141.97;100.00;47884.28;4990161;28;20632;-83
2023/01/25 03:07:43;;;;;;;17.23;8.10;;;;;;;-141.97;100.00;47932.34;5030801;28;20196;-83
2023/01/25 03:10:09;;;;;;;14.97;7.50;;;;;;;-141.97;100.00;47893.91;5074834;28;20223;-83
2023/01/25 03:12:35;;;;;;;13.80;7.00;;;;;;;-141.97;100.00;47899.66;5074887;28;20167;-83
2023/01/25 03:15:00;;;;;;;15.20;7.40;;;;;;;-141.97;100.00;47911.19;5074911;28;20176;-83
2023/01/25 03:17:25;;;;;;;17.43;7.37;;;;;;;-141.97;100.00;47876.59;5074397;28;20165;-83
2023/01/25 03:19:52;;;;;;;13.43;7.07;;;;;;;-141.97;100.00;47903.50;5074495;28;20582;-82
2023/01/25 03:22:18;;;;;;;13.87;6.60;;;;;;;-141.97;100.00;47951.56;5074620;28;20165;-83
2023/01/25 03:24:43;;;;;;;14.47;7.10;;;;;;;-141.97;100.00;47899.66;5074649;28;20467;-83
2023/01/25 03:27:17;;;;;;;12.77;5.63;;;;;;;-141.97;100.00;47799.72;5074882;28;20164;-83
2023/01/25 03:29:43;;;;;;;9.00;4.60;;;;;;;-141.97;100.00;47857.38;5074457;28;20244;-83
2023/01/25 03:32:09;;;;;;;11.10;5.60;;;;;;;-141.97;100.00;47903.50;5074911;28;20417;-83
2023/01/25 03:34:35;;;;;;;13.00;5.33;;;;;;;-141.97;100.00;47911.19;5074553;28;20399;-83
2023/01/25 03:37:00;;;;;;;13.47;5.70;;;;;;;-141.97;100.00;47878.53;5074526;28;20668;-83
2023/01/25 03:39:27;;;;;;;11.13;5.37;;;;;;;-141.97;100.00;47822.78;5074724;28;20252;-82
2023/01/25 03:41:52;;;;;;;9.67;4.77;;;;;;;-141.97;100.00;47884.28;5073862;28;20195;-82
2023/01/25 03:44:17;;;;;;;11.57;5.07;;;;;;;-141.97;100.00;47886.22;5074031;28;20399;-82
2023/01/25 03:46:43;;;;;;;9.83;5.33;;;;;;;-141.97;100.00;47886.22;5074077;28;20168;-83
2023/01/25 03:49:08;;;;;;;10.07;4.73;;;;;;;-141.97;100.00;47826.63;5073914;28;20551;-83
2023/01/25 03:51:34;;;;;;;10.30;5.23;;;;;;;-141.97;100.00;47920.81;5073556;28;20176;-83
2023/01/25 03:53:59;;;;;;;20.33;5.13;;;;;;;-141.97;100.00;47842.00;5073482;28;20548;-83
2023/01/25 03:56:25;;;;;;;9.67;4.83;;;;;;;-141.97;100.00;47857.38;5073369;28;20194;-82
2023/01/25 03:58:50;;;;;;;9.93;5.03;;;;;;;-141.97;100.00;47872.75;5073929;28;20168;-83
2023/01/25 04:01:16;;;;;;;11.30;5.17;;;;;;;-141.97;100.00;47916.97;5073297;28;20224;-83
2023/01/25 04:03:41;;;;;;;8.93;4.10;;;;;;;-141.97;100.00;47909.28;5073462;28;20168;-83
2023/01/25 04:06:07;;;;;;;11.20;5.27;;;;;;;-141.97;100.00;47811.25;5073473;28;20224;-82
2023/01/25 04:08:33;;;;;;;9.63;4.77;;;;;;;-141.97;100.00;47745.88;5073272;28;20207;-82
2023/01/25 04:11:04;;;;;;;9.57;4.93;;;;;;;-141.97;100.00;47838.16;5072855;28;20173;-82
2023/01/25 04:13:30;;;;;;;9.47;4.73;;;;;;;-141.97;100.00;47843.91;5073760;28;20172;-83
2023/01/25 04:15:56;;;;;;;9.63;4.77;;;;;;;-141.97;100.00;47888.13;5072880;28;20446;-82
2023/01/25 04:18:22;;;;;;;10.60;4.87;;;;;;;-141.97;100.00;47749.72;5072997;28;20596;-82
2023/01/25 04:20:54;;;;;;;9.80;4.73;;;;;;;-141.97;100.00;47818.94;5072813;28;20167;-82
2023/01/25 04:23:20;;;;;;;8.90;4.63;;;;;;;-141.97;100.00;47899.66;5073779;28;20165;-82
2023/01/25 04:26:00;;;;;;;9.90;4.83;;;;;;;-141.97;100.00;47905.44;5073049;28;20402;-83
2023/01/25 04:28:27;;;;;;;9.73;4.43;;;;;;;-141.97;100.00;47938.09;5072959;28;20161;-82
2023/01/25 04:30:54;;;;;;;13.63;4.70;;;;;;;-141.97;100.00;47915.03;5072685;28;20838;-82
2023/01/25 04:33:20;;;;;;;10.50;4.70;;;;;;;-141.97;100.00;47915.03;5072428;28;20406;-82
2023/01/25 04:35:45;;;;;;;11.33;5.27;;;;;;;-141.97;100.00;47974.63;5072945;28;20450;-82
2023/01/25 04:38:11;;;;;;;10.37;4.47;;;;;;;-141.97;100.00;47907.34;5072791;28;20169;-82
2023/01/25 04:40:37;;;;;;;9.57;4.83;;;;;;;-141.97;100.00;47888.13;5072179;28;20169;-82
2023/01/25 04:43:02;;;;;;;9.90;4.60;;;;;;;-141.97;100.00;47790.09;5072563;28;20865;-82
2023/01/25 04:45:28;;;;;;;8.77;4.27;;;;;;;-141.97;100.00;47888.13;5072703;28;20184;-83
2023/01/25 04:47:59;;;;;;;10.07;4.33;;;;;;;-141.97;100.00;47905.44;5072366;28;20216;-82
2023/01/25 04:50:25;;;;;;;9.93;4.70;;;;;;;-141.97;100.00;47901.59;5072805;28;20212;-82
2023/01/25 04:52:51;;;;;;;10.40;5.10;;;;;;;-141.97;100.00;47897.75;5073023;28;20950;-82
2023/01/25 04:55:16;;;;;;;10.07;4.47;;;;;;;-141.97;100.00;47924.66;5073129;28;20192;-82
2023/01/25 04:57:42;;;;;;;9.77;4.40;;;;;;;-141.97;100.00;47884.28;5090923;28;20247;-82
2023/01/25 05:00:08;;;;;;;10.63;4.70;;;;;;;-141.97;100.00;47838.16;5091195;28;20723;-82
2023/01/25 05:02:34;;;;;;;10.90;5.40;;;;;;;-141.97;100.00;47788.19;5074308;28;20161;-82
2023/01/25 05:04:59;;;;;;;10.90;5.37;;;;;;;-141.97;100.00;47888.13;5072502;28;20418;-82
2023/01/25 05:07:24;;;;;;;11.23;5.57;;;;;;;-141.97;100.00;47861.22;5072386;28;20240;-83
2023/01/25 05:09:50;;;;;;;11.80;5.80;;;;;;;-141.97;100.00;47845.84;5072496;28;20252;-82
2023/01/25 05:12:15;;;;;;;11.60;5.70;;;;;;;-141.97;100.00;47957.34;5072649;28;20176;-82
2023/01/25 05:14:41;;;;;;;11.23;5.40;;;;;;;-141.97;100.00;47842.00;5076692;28;20256;-83
2023/01/25 05:17:07;;;;;;;12.30;6.40;;;;;;;-141.97;100.00;47901.59;5085043;28;20176;-82
2023/01/25 05:19:33;;;;;;;9.80;5.20;;;;;;;-141.97;100.00;47918.88;5080512;28;20164;-83
2023/01/25 05:21:59;;;;;;;9.30;5.13;;;;;;;-141.97;100.00;47911.19;5077724;28;20403;-82
2023/01/25 05:24:27;;;;;;;10.60;4.83;;;;;;;-141.97;100.00;47893.91;5077851;28;20402;-82
2023/01/25 05:27:06;;;;;;;12.03;5.13;;;;;;;-141.97;100.00;47903.50;5060703;28;20407;-82
2023/01/25 05:29:35;;;;;;;10.83;5.23;;;;;;;-141.97;100.00;47968.88;5079772;28;20410;-83
2023/01/25 05:32:06;;;;;;;10.00;5.30;;;;;;;-141.97;100.00;47907.34;5078717;28;20442;-83
2023/01/25 05:34:32;;;;;;;10.93;5.40;;;;;;;-141.97;100.00;47876.59;5077714;28;20845;-83
2023/01/25 05:36:58;;;;;;;14.60;5.70;;;;;;;-141.97;100.00;47888.13;5080486;28;20485;-82
2023/01/25 05:39:23;;;;;;;11.40;5.67;;;;;;;-141.97;100.00;47857.38;5081613;28;20168;-83
2023/01/25 05:41:49;;;;;;;11.53;5.70;;;;;;;-141.97;100.00;47865.06;5064085;28;20191;-83
2023/01/25 05:44:14;;;;;;;11.43;6.20;;;;;;;-141.97;100.00;47878.53;5082200;28;20161;-83
2023/01/25 05:46:40;;;;;;;13.83;6.37;;;;;;;-141.97;100.00;47868.91;5078675;28;20164;-83
2023/01/25 05:49:06;;;;;;;10.63;6.23;;;;;;;-141.97;100.00;47899.66;5071845;28;20176;-83
2023/01/25 05:51:31;;;;;;;11.77;5.67;;;;;;;-141.97;100.00;47878.53;5071854;28;20622;-82
2023/01/25 05:53:57;;;;;;;11.90;5.53;;;;;;;-141.97;100.00;47815.09;5071725;28;20161;-83
2023/01/25 05:56:23;;;;;;;10.70;5.60;;;;;;;-141.97;100.00;47934.25;5071511;28;20192;-82
2023/01/25 05:58:55;;;;;;;18.67;8.57;;;;;;;-141.97;100.00;47880.44;5071678;28;20640;-83
2023/01/25 06:01:22;;;;;;;20.17;9.63;;;;;;;-141.97;100.00;47878.53;5071268;28;20990;-83
2023/01/25 06:03:47;;;;;;;12.23;6.33;;;;;;;-141.97;100.00;47895.81;5046331;28;20517;-83
2023/01/25 06:06:13;;;;;;;12.67;5.50;;;;;;;-141.97;100.00;47890.06;5070191;28;20443;-83
2023/01/25 06:08:39;;;;;;;14.47;6.63;;;;;;;-141.97;100.00;47930.41;5071649;28;20165;-82
2023/01/25 06:11:13;;;;;;;13.07;6.10;;;;;;;-141.97;100.00;47905.44;5071001;28;20243;-82
2023/01/25 06:13:38;;;;;;;12.30;6.83;;;;;;;-141.97;100.00;47874.69;5051685;28;20164;-84
2023/01/25 06:16:04;;;;;;;12.17;6.03;;;;;;;-141.97;100.00;47832.38;5051485;28;20458;-82
2023/01/25 06:18:31;;;;;;;12.57;6.27;;;;;;;-141.97;100.00;47915.03;5051034;28;20216;-83
2023/01/25 06:20:58;;;;;;;13.13;5.80;;;;;;;-141.97;100.00;47884.28;5053822;28;20191;-82
2023/01/25 06:23:23;;;;;;;11.47;6.17;;;;;;;-141.97;100.00;47874.69;5067746;28;20427;-83
2023/01/25 06:25:49;;;;;;;14.50;7.30;;;;;;;-141.97;100.00;47972.72;5057175;28;20413;-83
2023/01/25 06:28:14;;;;;;;14.90;7.57;;;;;;;-141.97;100.00;47911.19;5075040;28;20243;-83
2023/01/25 06:30:40;;;;;;;15.60;7.30;;;;;;;-141.97;100.00;47891.97;5054339;28;20157;-82
2023/01/25 06:33:05;;;;;;;19.23;8.73;;;;;;;-141.97;100.00;47872.75;5071025;28;20696;-82
2023/01/25 06:35:32;;;;;;;34.87;15.87;;;;;;;-141.97;100.00;47940.03;5071573;28;20196;-84
2023/01/25 06:37:59;;;;;;;56.57;19.70;;;;;;;-141.97;100.00;47930.41;5071529;28;20192;-82
2023/01/25 06:40:26;;;;;;;18.97;9.23;;;;;;;-141.97;100.00;47776.63;5053648;28;20811;-83
2023/01/25 06:42:51;;;;;;;31.80;14.00;;;;;;;-141.97;100.00;47934.25;5073543;28;20534;-83
2023/01/25 06:45:17;;;;;;;22.90;9.80;;;;;;;-141.97;100.00;47876.59;5075879;28;20414;-83
2023/01/25 06:47:43;;;;;;;15.87;7.70;;;;;;;-141.97;100.00;47915.03;5074745;28;20191;-83
2023/01/25 06:50:09;;;;;;;16.10;8.33;;;;;;;-141.97;100.00;47818.94;5075836;28;20947;-82
2023/01/25 06:52:35;;;;;;;17.63;7.97;;;;;;;-141.97;100.00;47913.13;5078784;28;20160;-83
2023/01/25 06:55:06;;;;;;;15.93;7.90;;;;;;;-141.97;100.00;47936.19;5095081;28;20437;-83
2023/01/25 06:57:32;;;;;;;22.83;11.13;;;;;;;-141.97;100.00;47878.53;5089239;28;20422;-83
2023/01/25 06:59:58;;;;;;;18.20;8.47;;;;;;;-141.97;100.00;47849.69;5083080;28;20533;-84
2023/01/25 07:02:23;;;;;;;20.63;9.20;;;;;;;-141.97;100.00;47868.91;5091534;28;20157;-83
2023/01/25 07:04:49;;;;;;;17.97;7.77;;;;;;;-141.97;100.00;47915.03;5086597;28;20165;-84
2023/01/25 07:07:14;;;;;;;17.70;8.60;;;;;;;-141.97;100.00;47891.97;5082052;28;20153;-82
2023/01/25 07:09:39;;;;;;;17.67;7.80;;;;;;;-141.97;100.00;47757.41;5082810;28;20164;-84
2023/01/25 07:12:05;;;;;;;14.83;7.60;;;;;;;-141.97;100.00;47780.47;5077570;28;20621;-84
2023/01/25 07:14:31;;;;;;;16.00;7.80;;;;;;;-141.97;100.00;47880.44;5084664;28;20656;-82
2023/01/25 07:16:57;;;;;;;14.53;7.20;;;;;;;-141.97;100.00;47890.06;5093431;28;20189;-83
2023/01/25 07:19:22;;;;;;;15.03;7.37;;;;;;;-141.97;100.00;47866.97;5078077;28;20434;-82
2023/01/25 07:21:48;;;;;;;17.13;6.70;;;;;;;-141.97;100.00;47945.81;5094831;28;20188;-82
2023/01/25 07:24:15;;;;;;;16.80;7.03;;;;;;;-141.97;100.00;47943.88;5091718;28;20180;-83
2023/01/25 07:26:41;;;;;;;17.77;7.27;;;;;;;-141.97;100.00;47886.22;5081728;28;20157;-82
2023/01/25 07:29:11;;;;;;;16.80;7.50;;;;;;;-141.97;100.00;47888.13;5084537;28;20479;-81
2023/01/25 07:31:36;;;;;;;15.63;7.70;;;;;;;-141.97;100.00;47903.50;5092054;28;20161;-82
2023/01/25 07:34:02;;;;;;;14.70;6.90;;;;;;;-141.97;100.00;47795.88;5078463;28;20941;-83
2023/01/25 07:36:27;;;;;;;16.17;7.23;;;;;;;-141.97;100.00;47861.22;5077058;28;20192;-83
2023/01/25 07:38:55;;;;;;;16.83;6.93;;;;;;;-141.97;100.00;47884.28;5057070;28;20256;-83
2023/01/25 07:41:22;;;;;;;15.53;7.30;;;;;;;-141.97;100.00;47905.44;5074830;28;20215;-83
2023/01/25 07:43:47;;;;;;;20.50;9.70;;;;;;;-141.97;100.00;47872.75;5056807;28;20873;-83
2023/01/25 07:46:15;;;;;;;15.40;8.20;;;;;;;-141.97;100.00;47924.66;5074383;28;20391;-83
2023/01/25 07:48:46;;;;;;;18.97;8.33;;;;;;;-141.97;100.00;47961.19;5074808;28;20156;-84
2023/01/25 07:51:22;;;;;;;15.63;8.00;;;;;;;-141.97;100.00;47861.22;5074262;28;20852;-85
2023/01/25 07:53:54;;;;;;;19.97;9.83;;;;;;;-141.97;100.00;47895.81;5074346;28;20427;-84
2023/01/25 07:56:25;;;;;;;15.33;7.43;;;;;;;-141.97;100.00;47826.63;5072765;28;20477;-83
2023/01/25 07:58:55;;;;;;;15.37;7.60;;;;;;;-141.97;100.00;47859.28;5076469;28;20399;-84
2023/01/25 08:01:23;;;;;;;28.03;12.13;;;;;;;-141.97;100.00;47911.19;5051939;28;21035;-84
2023/01/25 08:03:50;;;;;;;17.57;8.03;;;;;;;-141.97;100.00;47845.84;5043612;28;20491;-83
2023/01/25 08:06:16;;;;;;;17.43;7.23;;;;;;;-141.97;100.00;47924.66;5053833;28;20462;-83
2023/01/25 08:08:46;;;;;;;17.67;7.73;;;;;;;-141.97;100.00;47888.13;5053871;28;20404;-85
2023/01/25 08:11:22;;;;;;;14.77;7.30;;;;;;;-141.97;100.00;47924.66;5066253;28;20934;-83
2023/01/25 08:13:48;;;;;;;14.80;7.47;;;;;;;-141.97;100.00;47863.13;5035781;28;20407;-83
2023/01/25 08:16:15;;;;;;;15.83;7.73;;;;;;;-141.97;100.00;47886.22;5036597;28;20459;-83
2023/01/25 08:18:41;;;;;;;19.07;7.43;;;;;;;-141.97;100.00;47878.53;5055839;28;20419;-83
2023/01/25 08:21:08;;;;;;;16.30;7.57;;;;;;;-141.97;100.00;47922.72;5063119;28;20449;-83
2023/01/25 08:23:34;;;;;;;15.03;7.07;;;;;;;-141.97;100.00;47878.53;5072997;28;20403;-83
2023/01/25 08:26:02;;;;;;;13.90;7.10;;;;;;;-141.97;100.00;47899.66;5073589;28;20320;-83
2023/01/25 08:28:27;;;;;;;14.27;6.60;;;;;;;-141.97;100.00;47897.75;5056093;28;20497;-83
2023/01/25 08:30:53;;;;;;;13.77;6.57;;;;;;;-141.97;100.00;47932.34;5073380;28;20500;-83
2023/01/25 08:33:18;;;;;;;15.67;7.60;;;;;;;-141.97;100.00;47886.22;5075435;28;20553;-83
2023/01/25 08:35:53;;;;;;;22.37;9.43;;;;;;;-141.97;100.00;47851.59;5075078;28;20200;-83
2023/01/25 08:38:19;;;;;;;13.80;6.83;;;;;;;-141.97;100.00;47840.06;5072930;28;20437;-83
2023/01/25 08:40:44;;;;;;;15.33;7.80;;;;;;;-141.97;100.00;47895.81;5068019;28;20441;-84
2023/01/25 08:43:10;;;;;;;14.73;7.40;;;;;;;-141.97;100.00;47786.25;5052929;28;20164;-82
2023/01/25 08:45:35;;;;;;;15.37;7.63;;;;;;;-141.97;100.00;47826.63;5053135;28;20240;-82
2023/01/25 08:48:01;;;;;;;14.10;7.20;;;;;;;-141.97;100.00;47911.19;5053195;28;20218;-82
2023/01/25 08:50:26;;;;;;;17.40;7.20;;;;;;;-141.97;100.00;47866.97;5056344;28;20210;-83
2023/01/25 08:52:52;;;;;;;13.63;7.00;;;;;;;-141.97;100.00;47938.09;5072818;28;20299;-83
2023/01/25 08:55:17;;;;;;;16.30;8.07;;;;;;;-141.97;100.00;47938.09;5054658;28;20198;-82
2023/01/25 08:57:43;;;;;;;19.67;9.27;;;;;;;-141.97;100.00;47905.44;5072927;28;20183;-82
2023/01/25 09:00:09;;;;;;;15.53;7.67;;;;;;;-141.97;100.00;47926.56;5072222;28;20707;-82
2023/01/25 09:02:34;;;;;;;17.70;7.10;;;;;;;-141.97;100.00;47880.44;5063942;28;20184;-84
2023/01/25 09:05:00;;;;;;;14.50;7.17;;;;;;;-141.97;100.00;47943.88;5058650;28;20439;-83
2023/01/25 09:07:25;;;;;;;18.80;8.20;;;;;;;-141.97;100.00;47893.91;5072222;28;20181;-84
2023/01/25 09:09:50;;;;;;;14.60;7.70;;;;;;;-141.97;100.00;47916.97;5073004;28;20645;-84
2023/01/25 09:12:16;;;;;;;16.47;7.63;;;;;;;-141.97;100.00;47849.69;5072589;28;20192;-86
2023/01/25 09:14:41;;;;;;;14.27;7.57;;;;;;;-141.97;100.00;47934.25;5073761;28;20628;-82
2023/01/25 09:17:08;;;;;;;16.60;8.40;;;;;;;-141.97;100.00;47959.25;5074743;28;20220;-83
2023/01/25 09:19:33;;;;;;;22.97;10.27;;;;;;;-141.97;100.00;47903.50;5073685;28;20338;-83
2023/01/25 09:21:59;;;;;;;22.67;10.77;;;;;;;-141.97;100.00;47951.56;5056808;28;20509;-85
2023/01/25 09:24:24;;;;;;;24.70;11.33;;;;;;;-141.97;100.00;47911.19;5074526;28;20510;-82
2023/01/25 09:26:50;;;;;;;15.03;7.37;;;;;;;-141.97;100.00;47901.59;5074143;28;20620;-83
2023/01/25 09:29:15;;;;;;;14.10;7.20;;;;;;;-141.97;100.00;47799.72;5073143;28;20227;-83
2023/01/25 09:31:43;;;;;;;16.53;7.40;;;;;;;-141.97;100.00;47895.81;5073686;28;20195;-83
2023/01/25 09:34:11;;;;;;;16.00;7.73;;;;;;;-141.97;100.00;47868.91;5073445;28;20163;-83
2023/01/25 09:36:37;;;;;;;14.77;6.63;;;;;;;-141.97;100.00;47899.66;5072157;28;20446;-83
2023/01/25 09:39:03;;;;;;;15.20;6.87;;;;;;;-141.97;100.00;47843.91;5071922;28;20402;-82
2023/01/25 09:42:10;;;;;;;18.40;6.97;;;;;;;-141.97;100.00;47872.75;5072527;28;20180;-83
2023/01/25 09:44:54;;;;;;;16.40;7.43;;;;;;;-141.97;100.00;47903.50;5083905;28;20186;-82
2023/01/25 09:47:41;;;;;;;12.67;6.83;;;;;;;-141.97;100.00;47886.22;5086077;28;20441;-83
2023/01/25 09:50:34;;;;;;;15.60;6.80;;;;;;;-141.97;100.00;47861.22;5075969;28;20422;-83
2023/01/25 09:53:14;;;;;;;12.53;6.47;;;;;;;-141.97;100.00;47880.44;5076283;28;20425;-83
2023/01/25 09:55:40;;;;;;;11.93;5.93;;;;;;;-141.97;100.00;47974.63;5076211;28;20453;-83
2023/01/25 09:58:13;;;;;;;17.40;8.00;;;;;;;-141.97;100.00;47895.81;5080402;28;20395;-85
2023/01/25 10:00:53;;;;;;;18.20;8.40;;;;;;;-141.97;100.00;47870.81;5082206;28;20485;-82
2023/01/25 10:03:33;;;;;;;11.37;6.07;;;;;;;-141.97;100.00;47849.69;5074538;28;20422;-84
2023/01/25 10:06:01;;;;;;;12.40;6.10;;;;;;;-141.97;100.00;47888.13;5056585;28;20399;-83
2023/01/25 10:08:45;;;;;;;14.37;7.50;;;;;;;-141.97;100.00;47930.41;5074695;28;20406;-83
2023/01/25 10:11:15;;;;;;;13.37;6.30;;;;;;;-141.97;100.00;47872.75;5075256;28;20486;-82
2023/01/25 10:13:42;;;;;;;12.17;6.30;;;;;;;-141.97;100.00;47880.44;5075418;28;20788;-83
2023/01/25 10:16:21;;;;;;;14.20;6.83;;;;;;;-141.97;100.00;47884.28;5048366;28;20838;-83
2023/01/25 10:19:14;;;;;;;11.43;6.23;;;;;;;-141.97;100.00;47878.53;5072882;28;20414;-83
2023/01/25 10:21:44;;;;;;;13.70;5.97;;;;;;;-141.97;100.00;47884.28;5059902;28;20451;-83
2023/01/25 10:24:31;;;;;;;12.40;6.20;;;;;;;-141.97;100.00;47895.81;5056914;28;20403;-82
2023/01/25 10:27:06;;;;;;;15.80;6.77;;;;;;;-141.97;100.00;47865.06;5056797;28;20399;-83
2023/01/25 10:29:35;;;;;;;13.27;6.23;;;;;;;-141.97;100.00;47880.44;5059430;28;20417;-83
2023/01/25 10:32:07;;;;;;;19.20;8.70;;;;;;;-141.97;100.00;47876.59;5056805;28;20511;-83
2023/01/25 10:34:40;;;;;;;13.67;6.77;;;;;;;-141.97;100.00;47886.22;5071752;28;20406;-82
2023/01/25 10:37:13;;;;;;;13.93;6.00;;;;;;;-141.97;100.00;47918.88;5077743;28;20515;-83
2023/01/25 10:39:51;;;;;;;15.47;6.23;;;;;;;-141.97;100.00;47903.50;5079087;28;20890;-83
2023/01/25 10:42:18;;;;;;;12.67;6.67;;;;;;;-141.97;100.00;47836.22;5080896;28;20402;-84
2023/01/25 10:44:43;;;;;;;14.07;6.57;;;;;;;-141.97;100.00;47961.19;5060164;28;20399;-83
2023/01/25 10:47:15;;;;;;;61.67;25.63;;;;;;;-141.97;100.00;47945.81;5078546;28;20425;-83
2023/01/25 10:49:55;;;;;;;22.23;10.87;;;;;;;-141.97;100.00;47895.81;5062050;28;20218;-83
2023/01/25 10:52:25;;;;;;;15.97;7.80;;;;;;;-141.97;100.00;47872.75;5078453;28;20403;-83
2023/01/25 10:55:22;;;;;;;12.30;6.40;;;;;;;-141.97;100.00;47884.28;5079220;28;20414;-84
2023/01/25 10:57:49;;;;;;;14.27;6.70;;;;;;;-141.97;100.00;47868.91;5077261;28;20751;-83
2023/01/25 11:00:30;;;;;;;14.83;7.20;;;;;;;-141.97;100.00;47870.81;5076059;28;20469;-83
2023/01/25 11:02:55;;;;;;;14.60;7.37;;;;;;;-141.97;100.00;47945.81;5075434;28;20428;-83
2023/01/25 11:05:35;;;;;;;15.17;6.40;;;;;;;-141.97;100.00;47901.59;5075525;28;20409;-83
2023/01/25 11:08:30;;;;;;;11.67;6.00;;;;;;;-141.97;100.00;47884.28;5076147;28;20305;-82